Time;durP1;ratioP1;P1;durP2;ratioP2;P2;SDS_P1;SDS_P2;PMS_P1;PMS_P2;Temp;Humidity;BMP_temperature;BMP_pressure;BME280_temperature;BME280_humidity;BME280_pressure;Samples;Min_cycle;Max_cycle;Signal;HPM_P1;HPM_P2
2020/12/02 00:01:20;;;;;;;43.20;24.15;;;;;;;;;;5079217;28;20047;-59
2020/12/02 00:03:54;;;;;;;46.22;23.73;;;;;;;;;;5071798;28;20052;-58
2020/12/02 00:06:21;;;;;;;41.13;22.42;;;;;;;;;;5085732;28;20079;-58
2020/12/02 00:08:52;;;;;;;45.55;22.60;;;;;;;;;;5063241;28;20029;-58
2020/12/02 00:11:18;;;;;;;39.42;21.30;;;;;;;;;;5069246;28;20033;-59
2020/12/02 00:13:45;;;;;;;45.13;21.88;;;;;;;;;;5078819;28;20028;-59
2020/12/02 00:16:14;;;;;;;40.35;22.13;;;;;;;;;;5077883;28;20024;-59
2020/12/02 00:18:40;;;;;;;42.38;21.83;;;;;;;;;;5079985;28;20032;-59
2020/12/02 00:21:08;;;;;;;45.03;22.63;;;;;;;;;;5079474;28;20025;-59
2020/12/02 00:23:33;;;;;;;39.60;20.98;;;;;;;;;;5077684;28;20035;-58
2020/12/02 00:25:59;;;;;;;39.38;20.98;;;;;;;;;;5052101;28;20595;-56
2020/12/02 00:28:26;;;;;;;40.80;20.38;;;;;;;;;;5072318;28;20021;-58
2020/12/02 00:30:52;;;;;;;36.17;19.65;;;;;;;;;;5078081;28;20063;-58
2020/12/02 00:33:21;;;;;;;42.88;21.20;;;;;;;;;;5086512;28;20487;-60
2020/12/02 00:35:46;;;;;;;39.80;20.23;;;;;;;;;;5068547;28;20028;-59
2020/12/02 00:38:13;;;;;;;44.65;21.55;;;;;;;;;;5071450;28;20036;-58
2020/12/02 00:40:46;;;;;;;46.30;22.75;;;;;;;;;;5087875;28;20578;-57
2020/12/02 00:43:13;;;;;;;34.40;16.77;;;;;;;;;;5084159;28;20024;-59
2020/12/02 00:45:39;;;;;;;46.85;23.13;;;;;;;;;;5077097;28;20050;-59
2020/12/02 00:48:10;;;;;;;46.58;21.60;;;;;;;;;;5079388;28;20024;-58
2020/12/02 00:50:36;;;;;;;43.45;22.58;;;;;;;;;;5076225;28;20062;-59
2020/12/02 00:53:04;;;;;;;45.78;23.42;;;;;;;;;;5087349;28;20467;-58
2020/12/02 00:55:30;;;;;;;53.42;25.25;;;;;;;;;;5069530;28;20461;-58
2020/12/02 00:57:56;;;;;;;50.03;25.17;;;;;;;;;;5074935;28;20063;-57
2020/12/02 01:00:23;;;;;;;50.63;24.90;;;;;;;;;;5079979;28;20462;-59
2020/12/02 01:02:54;;;;;;;51.33;25.50;;;;;;;;;;5075031;28;20020;-59
2020/12/02 01:05:20;;;;;;;49.83;24.35;;;;;;;;;;5059656;28;20032;-58
2020/12/02 01:07:46;;;;;;;47.85;24.42;;;;;;;;;;5058578;28;20039;-59
2020/12/02 01:10:13;;;;;;;46.20;23.67;;;;;;;;;;5054149;28;20086;-58
2020/12/02 01:12:43;;;;;;;46.75;25.23;;;;;;;;;;5053618;28;20120;-58
2020/12/02 01:15:10;;;;;;;49.92;24.70;;;;;;;;;;5078765;28;20034;-59
2020/12/02 01:17:36;;;;;;;49.38;26.38;;;;;;;;;;5085239;28;20032;-59
2020/12/02 01:20:04;;;;;;;51.85;25.45;;;;;;;;;;5090511;28;20063;-59
2020/12/02 01:22:33;;;;;;;53.05;25.52;;;;;;;;;;5069618;28;20070;-57
2020/12/02 01:25:04;;;;;;;51.38;25.73;;;;;;;;;;5081411;28;20064;-57
2020/12/02 01:27:32;;;;;;;47.97;24.60;;;;;;;;;;5078851;28;20036;-59
2020/12/02 01:29:58;;;;;;;51.35;25.75;;;;;;;;;;5080791;28;20028;-59
2020/12/02 01:32:25;;;;;;;51.47;25.38;;;;;;;;;;5071390;28;20387;-59
2020/12/02 01:34:52;;;;;;;55.65;26.17;;;;;;;;;;5052735;28;20116;-58
2020/12/02 01:37:21;;;;;;;54.25;25.45;;;;;;;;;;5078477;28;20047;-59
2020/12/02 01:40:06;;;;;;;50.45;25.55;;;;;;;;;;5080817;28;20613;-59
2020/12/02 01:42:32;;;;;;;50.40;25.60;;;;;;;;;;5075694;28;20024;-59
2020/12/02 01:44:59;;;;;;;46.15;23.98;;;;;;;;;;5080852;28;20036;-59
2020/12/02 01:47:30;;;;;;;53.67;26.73;;;;;;;;;;5082394;28;20030;-60
2020/12/02 01:50:06;;;;;;;50.30;25.10;;;;;;;;;;5079331;28;20033;-58
2020/12/02 01:52:51;;;;;;;54.63;26.23;;;;;;;;;;5078370;28;20051;-57
2020/12/02 01:55:20;;;;;;;62.30;28.55;;;;;;;;;;5084868;28;20028;-59
2020/12/02 01:57:48;;;;;;;50.05;26.25;;;;;;;;;;5081959;28;20511;-59
2020/12/02 02:00:16;;;;;;;53.13;26.35;;;;;;;;;;5081921;28;20044;-59
2020/12/02 02:02:42;;;;;;;58.03;27.65;;;;;;;;;;5075152;28;20118;-59
2020/12/02 02:05:16;;;;;;;57.28;27.95;;;;;;;;;;5067011;28;20036;-59
2020/12/02 02:07:42;;;;;;;58.67;28.05;;;;;;;;;;5070701;28;20167;-56
2020/12/02 02:10:22;;;;;;;54.78;26.92;;;;;;;;;;5076923;28;20024;-59
2020/12/02 02:13:06;;;;;;;57.30;28.00;;;;;;;;;;5080046;28;20040;-59
2020/12/02 02:15:35;;;;;;;55.47;27.60;;;;;;;;;;5081381;28;20050;-60
2020/12/02 02:18:05;;;;;;;60.67;29.95;;;;;;;;;;5089799;28;20027;-59
2020/12/02 02:20:35;;;;;;;61.55;30.85;;;;;;;;;;5081471;28;20082;-58
2020/12/02 02:23:01;;;;;;;57.40;27.80;;;;;;;;;;5063762;28;20391;-59
2020/12/02 02:25:28;;;;;;;60.30;28.85;;;;;;;;;;5079719;28;20103;-58
2020/12/02 02:27:55;;;;;;;59.10;28.38;;;;;;;;;;5086840;28;20032;-58
2020/12/02 02:30:22;;;;;;;53.97;28.23;;;;;;;;;;5090054;28;20030;-58
2020/12/02 02:32:48;;;;;;;53.72;26.80;;;;;;;;;;5075823;28;20052;-58
2020/12/02 02:35:14;;;;;;;57.08;27.00;;;;;;;;;;5068647;28;20040;-57
2020/12/02 02:37:40;;;;;;;56.55;26.80;;;;;;;;;;5091009;28;20084;-59
2020/12/02 02:40:07;;;;;;;53.80;27.33;;;;;;;;;;5088488;28;20666;-59
2020/12/02 02:42:39;;;;;;;59.30;29.08;;;;;;;;;;5077674;28;20043;-58
2020/12/02 02:45:16;;;;;;;51.78;26.35;;;;;;;;;;5063015;28;20027;-59
2020/12/02 02:47:42;;;;;;;55.45;26.45;;;;;;;;;;5083856;28;20019;-60
2020/12/02 02:50:11;;;;;;;54.50;26.92;;;;;;;;;;5074820;28;20410;-60
2020/12/02 02:52:37;;;;;;;54.08;25.70;;;;;;;;;;5069482;28;20049;-59
2020/12/02 02:55:04;;;;;;;48.13;24.67;;;;;;;;;;5072623;28;20066;-59
2020/12/02 02:57:30;;;;;;;52.10;25.25;;;;;;;;;;5074663;28;20039;-60
2020/12/02 02:59:55;;;;;;;45.05;24.23;;;;;;;;;;5062524;28;20446;-59
2020/12/02 03:02:22;;;;;;;51.60;24.75;;;;;;;;;;5073463;28;20665;-59
2020/12/02 03:04:48;;;;;;;51.55;25.42;;;;;;;;;;5071133;28;20032;-58
2020/12/02 03:07:15;;;;;;;47.88;24.45;;;;;;;;;;5083713;28;20024;-58
2020/12/02 03:09:42;;;;;;;50.47;25.45;;;;;;;;;;5075164;28;20033;-58
2020/12/02 03:12:08;;;;;;;58.08;27.25;;;;;;;;;;5083103;28;20020;-59
2020/12/02 03:14:41;;;;;;;56.28;27.60;;;;;;;;;;5076985;28;20047;-57
2020/12/02 03:17:07;;;;;;;58.95;27.73;;;;;;;;;;5074867;28;20032;-59
2020/12/02 03:19:33;;;;;;;63.92;29.63;;;;;;;;;;5080149;28;20038;-57
2020/12/02 03:22:02;;;;;;;61.67;28.40;;;;;;;;;;5079314;28;20032;-59
2020/12/02 03:24:28;;;;;;;63.13;29.25;;;;;;;;;;5082963;28;20069;-57
2020/12/02 03:26:54;;;;;;;60.47;28.58;;;;;;;;;;5076494;28;20028;-59
2020/12/02 03:29:22;;;;;;;60.22;28.15;;;;;;;;;;5074919;28;20028;-59
2020/12/02 03:31:48;;;;;;;59.25;28.00;;;;;;;;;;5068705;28;20033;-59
2020/12/02 03:34:15;;;;;;;56.72;28.40;;;;;;;;;;5078002;28;20040;-59
2020/12/02 03:36:41;;;;;;;58.65;29.17;;;;;;;;;;5086780;28;20032;-59
2020/12/02 03:39:08;;;;;;;61.85;28.55;;;;;;;;;;5068333;28;20085;-58
2020/12/02 03:41:34;;;;;;;64.47;28.42;;;;;;;;;;5085559;28;20024;-58
2020/12/02 03:44:00;;;;;;;58.70;28.25;;;;;;;;;;5069679;28;20031;-57
2020/12/02 03:46:26;;;;;;;62.67;30.65;;;;;;;;;;5079420;28;20019;-57
2020/12/02 03:48:52;;;;;;;60.08;28.58;;;;;;;;;;5074174;28;20101;-59
2020/12/02 03:51:18;;;;;;;58.05;28.65;;;;;;;;;;5069620;28;20033;-59
2020/12/02 03:53:44;;;;;;;57.97;29.38;;;;;;;;;;5072979;28;20039;-57
2020/12/02 03:56:10;;;;;;;62.28;28.13;;;;;;;;;;5078545;28;20035;-58
2020/12/02 03:58:36;;;;;;;66.15;30.35;;;;;;;;;;5077818;28;20032;-57
2020/12/02 04:01:03;;;;;;;72.25;30.35;;;;;;;;;;5083876;28;20040;-59
2020/12/02 04:03:29;;;;;;;60.85;29.80;;;;;;;;;;5083833;28;20530;-59
2020/12/02 04:05:55;;;;;;;66.97;30.10;;;;;;;;;;5086204;28;20024;-59
2020/12/02 04:08:21;;;;;;;65.20;30.60;;;;;;;;;;5077500;28;20035;-59
2020/12/02 04:10:47;;;;;;;64.10;29.80;;;;;;;;;;5072776;28;20021;-60
2020/12/02 04:13:13;;;;;;;68.35;32.28;;;;;;;;;;5078507;28;20123;-59
2020/12/02 04:15:39;;;;;;;62.40;30.02;;;;;;;;;;5070741;28;20495;-59
2020/12/02 04:18:05;;;;;;;62.35;29.67;;;;;;;;;;5066928;28;20029;-58
2020/12/02 04:20:31;;;;;;;69.68;30.35;;;;;;;;;;5071825;28;20043;-59
2020/12/02 04:22:57;;;;;;;60.38;29.00;;;;;;;;;;5075694;28;20028;-58
2020/12/02 04:25:24;;;;;;;65.90;29.65;;;;;;;;;;5066711;28;20036;-58
2020/12/02 04:27:51;;;;;;;69.47;32.65;;;;;;;;;;5081006;28;20360;-58
2020/12/02 04:30:17;;;;;;;63.20;31.08;;;;;;;;;;5081210;28;20383;-58
2020/12/02 04:32:43;;;;;;;65.50;30.63;;;;;;;;;;5072365;28;20085;-59
2020/12/02 04:35:09;;;;;;;64.40;28.80;;;;;;;;;;5066541;28;20037;-57
2020/12/02 04:37:35;;;;;;;64.30;30.95;;;;;;;;;;5078446;28;20036;-59
2020/12/02 04:40:02;;;;;;;68.25;32.47;;;;;;;;;;5051166;28;20467;-60
2020/12/02 04:42:29;;;;;;;59.65;30.75;;;;;;;;;;5077347;28;20090;-60
2020/12/02 04:44:55;;;;;;;60.33;30.17;;;;;;;;;;5082232;28;20051;-59
2020/12/02 04:47:30;;;;;;;62.45;31.17;;;;;;;;;;5068949;28;20032;-59
2020/12/02 04:49:56;;;;;;;67.93;28.85;;;;;;;;;;5091193;28;20470;-59
2020/12/02 04:52:23;;;;;;;61.95;30.00;;;;;;;;;;5088394;28;20031;-59
2020/12/02 04:54:49;;;;;;;66.15;30.40;;;;;;;;;;5088677;28;20406;-59
2020/12/02 04:57:15;;;;;;;61.97;29.27;;;;;;;;;;5086091;28;20032;-59
2020/12/02 04:59:42;;;;;;;59.97;29.55;;;;;;;;;;5084499;28;20048;-58
2020/12/02 05:02:21;;;;;;;65.28;31.58;;;;;;;;;;5072798;28;20065;-57
2020/12/02 05:04:54;;;;;;;59.15;29.77;;;;;;;;;;5071821;28;20024;-58
2020/12/02 05:07:20;;;;;;;67.13;30.77;;;;;;;;;;5080069;28;20035;-59
2020/12/02 05:09:59;;;;;;;53.63;27.95;;;;;;;;;;5076203;28;20024;-58
2020/12/02 05:12:28;;;;;;;59.25;28.42;;;;;;;;;;5081016;28;20131;-58
2020/12/02 05:15:06;;;;;;;68.00;30.45;;;;;;;;;;5076666;28;20832;-58
2020/12/02 05:17:32;;;;;;;61.42;30.48;;;;;;;;;;5087958;28;20028;-59
2020/12/02 05:20:03;;;;;;;64.65;30.88;;;;;;;;;;5080720;28;20031;-58
2020/12/02 05:22:33;;;;;;;69.10;30.52;;;;;;;;;;5076450;28;20046;-59
2020/12/02 05:24:59;;;;;;;67.75;29.10;;;;;;;;;;5062381;28;20051;-58
2020/12/02 05:27:35;;;;;;;63.95;30.40;;;;;;;;;;5066125;28;20029;-58
2020/12/02 05:30:13;;;;;;;62.08;27.42;;;;;;;;;;5075456;28;20029;-59
2020/12/02 05:32:39;;;;;;;58.53;27.75;;;;;;;;;;5066482;28;20051;-58
2020/12/02 05:35:13;;;;;;;63.05;29.67;;;;;;;;;;5071078;28;20383;-57
2020/12/02 05:37:41;;;;;;;62.58;29.38;;;;;;;;;;5071352;28;20439;-59
2020/12/02 05:40:10;;;;;;;71.63;31.73;;;;;;;;;;5083397;28;20039;-59
2020/12/02 05:42:37;;;;;;;63.22;29.77;;;;;;;;;;5087698;28;20507;-60
2020/12/02 05:45:08;;;;;;;60.80;28.80;;;;;;;;;;5079354;28;20027;-59
2020/12/02 05:47:34;;;;;;;57.80;28.38;;;;;;;;;;5067394;28;20046;-59
2020/12/02 05:50:00;;;;;;;58.08;29.70;;;;;;;;;;5071407;28;20013;-59
2020/12/02 05:52:32;;;;;;;65.60;29.55;;;;;;;;;;5087884;28;20109;-58
2020/12/02 05:55:04;;;;;;;61.85;29.27;;;;;;;;;;5073312;28;20025;-59
2020/12/02 05:57:29;;;;;;;61.50;30.52;;;;;;;;;;5067255;28;20039;-59
2020/12/02 05:59:56;;;;;;;63.88;28.40;;;;;;;;;;5070803;28;20438;-60
2020/12/02 06:02:23;;;;;;;63.90;30.40;;;;;;;;;;5083017;28;20036;-56
2020/12/02 06:04:53;;;;;;;66.82;28.33;;;;;;;;;;5079748;28;20027;-58
2020/12/02 06:07:19;;;;;;;65.93;29.10;;;;;;;;;;5071408;28;20645;-57
2020/12/02 06:09:46;;;;;;;66.78;29.10;;;;;;;;;;5072606;28;20122;-56
2020/12/02 06:12:14;;;;;;;64.07;30.25;;;;;;;;;;5077284;28;20475;-57
2020/12/02 06:14:40;;;;;;;58.70;29.02;;;;;;;;;;5074356;28;20109;-59
2020/12/02 06:17:09;;;;;;;64.43;29.17;;;;;;;;;;5086367;28;20102;-58
2020/12/02 06:19:38;;;;;;;55.67;26.98;;;;;;;;;;5084100;28;20024;-57
2020/12/02 06:22:06;;;;;;;53.60;27.17;;;;;;;;;;5081386;28;20031;-58
2020/12/02 06:24:31;;;;;;;57.70;27.38;;;;;;;;;;5076357;28;20026;-60
2020/12/02 06:26:58;;;;;;;61.72;28.08;;;;;;;;;;5073088;28;20017;-60
2020/12/02 06:29:28;;;;;;;67.43;30.70;;;;;;;;;;5075996;28;20035;-59
2020/12/02 06:31:59;;;;;;;60.85;29.00;;;;;;;;;;5070845;28;20024;-59
2020/12/02 06:34:27;;;;;;;66.95;30.58;;;;;;;;;;5089224;28;20028;-58
2020/12/02 06:37:01;;;;;;;60.83;28.85;;;;;;;;;;5090349;28;20028;-59
2020/12/02 06:39:29;;;;;;;66.30;29.35;;;;;;;;;;5090552;28;20059;-59
2020/12/02 06:41:55;;;;;;;62.72;29.80;;;;;;;;;;5090301;28;20447;-60
2020/12/02 06:44:34;;;;;;;63.97;28.35;;;;;;;;;;5079317;28;20028;-58
2020/12/02 06:47:22;;;;;;;66.15;30.15;;;;;;;;;;5082434;28;20036;-60
2020/12/02 06:49:50;;;;;;;63.33;29.77;;;;;;;;;;5089432;28;20324;-60
2020/12/02 06:52:24;;;;;;;60.97;29.52;;;;;;;;;;5089834;28;20513;-58
2020/12/02 06:54:50;;;;;;;65.18;30.55;;;;;;;;;;5090166;28;20028;-60
2020/12/02 06:57:19;;;;;;;58.97;28.58;;;;;;;;;;5088492;28;20035;-60
2020/12/02 06:59:56;;;;;;;62.67;28.90;;;;;;;;;;5063968;28;20048;-60
2020/12/02 07:02:41;;;;;;;63.78;27.88;;;;;;;;;;5088137;28;20529;-59
2020/12/02 07:05:09;;;;;;;58.03;27.17;;;;;;;;;;5068676;28;20036;-59
2020/12/02 07:07:35;;;;;;;57.88;27.38;;;;;;;;;;5078399;28;20077;-60
2020/12/02 07:10:01;;;;;;;58.47;26.63;;;;;;;;;;5085295;28;20020;-59
2020/12/02 07:12:29;;;;;;;47.67;25.20;;;;;;;;;;5069513;28;20032;-58
2020/12/02 07:14:59;;;;;;;47.47;23.42;;;;;;;;;;5071237;28;20020;-59
2020/12/02 07:17:25;;;;;;;54.60;24.30;;;;;;;;;;5059781;28;20039;-58
2020/12/02 07:19:52;;;;;;;51.33;24.38;;;;;;;;;;5069644;28;20028;-57
2020/12/02 07:22:20;;;;;;;50.85;24.92;;;;;;;;;;5076016;28;20024;-60
2020/12/02 07:24:47;;;;;;;50.75;24.17;;;;;;;;;;5083098;28;20032;-60
2020/12/02 07:27:14;;;;;;;51.50;24.02;;;;;;;;;;5068162;28;20025;-60
2020/12/02 07:29:40;;;;;;;48.25;23.85;;;;;;;;;;5075678;28;20032;-58
2020/12/02 07:32:12;;;;;;;53.72;25.55;;;;;;;;;;5070250;28;20036;-59
2020/12/02 07:34:38;;;;;;;49.88;24.45;;;;;;;;;;5073795;28;20039;-57
2020/12/02 07:37:06;;;;;;;50.22;24.70;;;;;;;;;;5084531;28;20118;-55
2020/12/02 07:39:32;;;;;;;52.97;26.25;;;;;;;;;;5071866;28;20073;-57
2020/12/02 07:41:58;;;;;;;42.90;22.17;;;;;;;;;;5076662;28;20078;-57
2020/12/02 07:44:25;;;;;;;54.72;24.67;;;;;;;;;;5075297;28;20032;-58
2020/12/02 07:46:53;;;;;;;48.08;22.88;;;;;;;;;;5068567;28;20396;-58
2020/12/02 07:49:19;;;;;;;52.42;24.83;;;;;;;;;;5071954;28;20386;-58
2020/12/02 07:51:50;;;;;;;54.70;25.08;;;;;;;;;;5073960;28;20024;-57
2020/12/02 07:54:19;;;;;;;52.20;25.98;;;;;;;;;;5080081;28;20032;-57
2020/12/02 07:56:47;;;;;;;50.05;25.00;;;;;;;;;;5068751;28;20581;-56
2020/12/02 07:59:18;;;;;;;50.88;25.13;;;;;;;;;;5075032;28;20028;-58
2020/12/02 08:01:57;;;;;;;48.05;23.70;;;;;;;;;;5075289;28;20055;-56
2020/12/02 08:04:23;;;;;;;49.50;24.83;;;;;;;;;;5076188;28;20028;-54
2020/12/02 08:07:00;;;;;;;55.05;26.08;;;;;;;;;;5074489;28;20016;-57
2020/12/02 08:09:26;;;;;;;49.83;24.48;;;;;;;;;;5080112;28;20027;-59
2020/12/02 08:11:53;;;;;;;49.45;24.23;;;;;;;;;;5087997;28;20024;-59
2020/12/02 08:14:22;;;;;;;45.75;23.50;;;;;;;;;;5072774;28;20028;-57
2020/12/02 08:16:51;;;;;;;45.63;23.10;;;;;;;;;;5085191;28;20020;-58
2020/12/02 08:19:27;;;;;;;51.28;23.48;;;;;;;;;;5068625;28;20060;-58
2020/12/02 08:21:53;;;;;;;48.25;23.80;;;;;;;;;;5062740;28;20036;-57
2020/12/02 08:24:34;;;;;;;48.58;23.35;;;;;;;;;;5067905;28;20108;-57
2020/12/02 08:27:01;;;;;;;50.65;23.42;;;;;;;;;;5064161;28;20044;-59
2020/12/02 08:29:32;;;;;;;49.03;23.52;;;;;;;;;;5065641;28;20543;-57
2020/12/02 08:32:04;;;;;;;49.80;23.85;;;;;;;;;;5060252;28;20071;-59
2020/12/02 08:34:32;;;;;;;51.08;24.23;;;;;;;;;;5067739;28;20024;-56
2020/12/02 08:37:17;;;;;;;47.90;23.75;;;;;;;;;;5067880;28;20079;-59
2020/12/02 08:39:44;;;;;;;53.53;25.13;;;;;;;;;;5063186;28;20502;-57
2020/12/02 08:42:11;;;;;;;52.50;25.10;;;;;;;;;;5071879;28;20056;-57
2020/12/02 08:44:37;;;;;;;54.75;26.95;;;;;;;;;;5058115;28;20021;-59
2020/12/02 08:47:10;;;;;;;55.10;25.10;;;;;;;;;;5062938;28;20016;-60
2020/12/02 08:49:37;;;;;;;54.25;26.65;;;;;;;;;;5061445;28;20093;-56
2020/12/02 08:52:04;;;;;;;56.97;27.73;;;;;;;;;;5071668;28;20024;-57
2020/12/02 08:54:30;;;;;;;56.80;27.58;;;;;;;;;;5065942;28;20546;-57
2020/12/02 08:57:09;;;;;;;53.22;26.20;;;;;;;;;;5067977;28;20078;-58
2020/12/02 08:59:35;;;;;;;54.95;27.67;;;;;;;;;;5057522;28;20033;-60
2020/12/02 09:02:05;;;;;;;53.50;26.05;;;;;;;;;;5063492;28;20047;-56
2020/12/02 09:04:31;;;;;;;52.53;25.67;;;;;;;;;;5069452;28;20662;-58
2020/12/02 09:06:57;;;;;;;49.60;24.77;;;;;;;;;;5065776;28;20021;-60
2020/12/02 09:09:24;;;;;;;54.28;23.88;;;;;;;;;;5067661;28;20037;-60
2020/12/02 09:11:50;;;;;;;52.60;25.23;;;;;;;;;;5072304;28;20036;-60
2020/12/02 09:14:16;;;;;;;52.20;25.10;;;;;;;;;;5067384;28;20020;-60
2020/12/02 09:16:42;;;;;;;49.08;24.55;;;;;;;;;;5070708;28;20021;-61
2020/12/02 09:19:09;;;;;;;44.35;23.27;;;;;;;;;;5071555;28;20028;-59
2020/12/02 09:21:35;;;;;;;49.13;23.38;;;;;;;;;;5065185;28;20024;-58
2020/12/02 09:24:02;;;;;;;44.08;22.55;;;;;;;;;;5063536;28;20021;-59
2020/12/02 09:26:29;;;;;;;47.45;24.30;;;;;;;;;;5067819;28;20367;-59
2020/12/02 09:28:56;;;;;;;44.78;22.92;;;;;;;;;;5072068;28;20028;-60
2020/12/02 09:31:23;;;;;;;51.15;25.08;;;;;;;;;;5065087;28;20032;-59
2020/12/02 09:33:50;;;;;;;47.80;24.13;;;;;;;;;;5068819;28;20029;-60
2020/12/02 09:36:16;;;;;;;52.78;25.42;;;;;;;;;;5071294;28;20567;-60
2020/12/02 09:38:42;;;;;;;48.50;25.15;;;;;;;;;;5069729;28;20599;-58
2020/12/02 09:41:27;;;;;;;51.65;27.20;;;;;;;;;;5069857;28;20111;-60
2020/12/02 09:44:01;;;;;;;55.13;25.60;;;;;;;;;;5059542;28;20051;-59
2020/12/02 09:46:28;;;;;;;52.22;26.05;;;;;;;;;;5070934;28;20036;-59
2020/12/02 09:48:55;;;;;;;44.05;23.90;;;;;;;;;;5070257;28;20035;-59
2020/12/02 09:51:22;;;;;;;48.45;24.05;;;;;;;;;;5068190;28;20501;-58
2020/12/02 09:53:49;;;;;;;49.05;23.83;;;;;;;;;;5069263;28;20032;-60
2020/12/02 09:56:15;;;;;;;48.00;25.00;;;;;;;;;;5076563;28;20032;-59
2020/12/02 09:58:42;;;;;;;51.10;24.70;;;;;;;;;;5090633;28;20044;-59
2020/12/02 10:01:28;;;;;;;51.15;24.10;;;;;;;;;;5090661;28;20059;-58
2020/12/02 10:03:54;;;;;;;49.30;24.30;;;;;;;;;;5080246;28;20075;-57
2020/12/02 10:06:20;;;;;;;50.42;25.45;;;;;;;;;;5081434;28;20459;-58
2020/12/02 10:09:04;;;;;;;46.83;23.23;;;;;;;;;;5088949;28;20402;-58
2020/12/02 10:11:45;;;;;;;48.63;24.33;;;;;;;;;;5080190;28;20027;-58
2020/12/02 10:14:31;;;;;;;50.55;25.35;;;;;;;;;;5081119;28;20035;-59
2020/12/02 10:17:09;;;;;;;48.75;25.35;;;;;;;;;;5082122;28;20073;-58
2020/12/02 10:19:57;;;;;;;53.42;26.17;;;;;;;;;;5086184;28;20033;-58
2020/12/02 10:22:36;;;;;;;45.58;23.10;;;;;;;;;;5066331;28;20031;-59
2020/12/02 10:25:17;;;;;;;47.08;24.38;;;;;;;;;;5079815;28;20051;-58
2020/12/02 10:27:46;;;;;;;58.17;27.52;;;;;;;;;;5089502;28;20666;-58
2020/12/02 10:30:17;;;;;;;55.72;27.83;;;;;;;;;;5081893;28;20111;-59
2020/12/02 10:32:46;;;;;;;59.75;29.70;;;;;;;;;;5080364;28;20753;-58
2020/12/02 10:35:12;;;;;;;58.63;30.85;;;;;;;;;;5079805;28;20076;-60
2020/12/02 10:37:41;;;;;;;59.33;28.98;;;;;;;;;;5062316;28;20426;-60
2020/12/02 10:40:08;;;;;;;59.95;30.55;;;;;;;;;;5081611;28;20033;-60
2020/12/02 10:42:52;;;;;;;59.65;29.17;;;;;;;;;;5077910;28;20032;-60
2020/12/02 10:45:20;;;;;;;60.03;29.30;;;;;;;;;;5074490;28;20379;-60
2020/12/02 10:47:49;;;;;;;59.03;28.95;;;;;;;;;;5067859;28;20040;-60
2020/12/02 10:50:16;;;;;;;60.92;29.90;;;;;;;;;;5085709;28;20507;-61
2020/12/02 10:52:43;;;;;;;62.65;30.52;;;;;;;;;;5088473;28;20065;-60
2020/12/02 10:55:13;;;;;;;58.83;31.20;;;;;;;;;;5073280;28;20037;-61
2020/12/02 10:57:40;;;;;;;60.67;29.38;;;;;;;;;;5073841;28;20029;-58
2020/12/02 11:00:07;;;;;;;60.17;29.60;;;;;;;;;;5089291;28;20079;-60
2020/12/02 11:02:33;;;;;;;54.88;28.58;;;;;;;;;;5087913;28;20024;-59
2020/12/02 11:04:59;;;;;;;58.83;31.23;;;;;;;;;;5078237;28;20741;-61
2020/12/02 11:07:32;;;;;;;57.75;29.17;;;;;;;;;;5089800;28;20020;-61
2020/12/02 11:09:59;;;;;;;;;;;;;;;;;;5089997;28;20100;-61
2020/12/02 11:12:48;;;;;;;61.08;27.25;;;;;;;;;;5072616;28;19954;-61
2020/12/02 11:15:22;;;;;;;59.40;28.58;;;;;;;;;;5078910;28;20105;-61
2020/12/02 11:17:58;;;;;;;58.45;29.75;;;;;;;;;;5089500;28;20032;-60
2020/12/02 11:20:32;;;;;;;56.75;28.65;;;;;;;;;;5080674;28;20069;-61
2020/12/02 11:22:58;;;;;;;56.63;29.33;;;;;;;;;;5055648;28;20112;-61
2020/12/02 11:25:28;;;;;;;58.28;28.38;;;;;;;;;;5058225;28;20025;-61
2020/12/02 11:27:55;;;;;;;57.70;28.67;;;;;;;;;;5077708;28;20468;-61
2020/12/02 11:30:28;;;;;;;51.03;27.52;;;;;;;;;;5080488;28;20086;-61
2020/12/02 11:33:07;;;;;;;65.32;29.27;;;;;;;;;;5065067;28;20484;-61
2020/12/02 11:35:36;;;;;;;60.47;31.08;;;;;;;;;;5073413;28;20036;-61
2020/12/02 11:38:09;;;;;;;55.15;28.88;;;;;;;;;;5089907;28;20032;-61
2020/12/02 11:40:41;;;;;;;59.67;31.25;;;;;;;;;;5081723;28;20032;-61
2020/12/02 11:43:09;;;;;;;60.55;28.52;;;;;;;;;;5064817;28;20025;-61
2020/12/02 11:45:41;;;;;;;58.20;27.55;;;;;;;;;;5084510;28;20039;-62
2020/12/02 11:48:26;;;;;;;58.25;28.75;;;;;;;;;;5076902;28;20021;-62
2020/12/02 11:51:06;;;;;;;53.25;27.95;;;;;;;;;;5089347;28;20479;-61
2020/12/02 11:53:44;;;;;;;56.67;28.58;;;;;;;;;;5076329;28;20024;-61
2020/12/02 11:56:12;;;;;;;56.30;29.63;;;;;;;;;;5089167;28;20021;-61
2020/12/02 11:58:37;;;;;;;80.55;42.42;;;;;;;;;;5088309;28;20127;-61
2020/12/02 12:01:09;;;;;;;53.03;29.33;;;;;;;;;;5082891;28;20051;-61
2020/12/02 12:03:44;;;;;;;54.80;27.63;;;;;;;;;;5074588;28;20028;-61
2020/12/02 12:06:17;;;;;;;80.15;39.15;;;;;;;;;;5068053;28;20020;-61
2020/12/02 12:08:56;;;;;;;221.35;115.35;;;;;;;;;;5078389;28;20020;-61
2020/12/02 12:11:30;;;;;;;59.38;29.05;;;;;;;;;;5085266;28;20028;-61
2020/12/02 12:14:04;;;;;;;62.05;31.63;;;;;;;;;;5077714;28;20470;-61
2020/12/02 12:16:42;;;;;;;55.33;28.83;;;;;;;;;;5082470;28;20032;-61
2020/12/02 12:19:32;;;;;;;73.10;39.03;;;;;;;;;;5078917;28;20392;-61
2020/12/02 12:22:07;;;;;;;97.72;52.92;;;;;;;;;;5068055;28;20056;-61
2020/12/02 12:24:33;;;;;;;58.88;29.50;;;;;;;;;;5067838;28;20025;-61
2020/12/02 12:26:59;;;;;;;46.22;26.27;;;;;;;;;;5068744;28;20514;-61
2020/12/02 12:29:25;;;;;;;51.03;25.20;;;;;;;;;;5076953;28;20945;-61
2020/12/02 12:31:52;;;;;;;47.60;24.85;;;;;;;;;;5063730;28;20512;-61
2020/12/02 12:34:26;;;;;;;46.13;24.58;;;;;;;;;;5069108;28;20035;-61
2020/12/02 12:36:52;;;;;;;;;;;;;;;;;;5087260;28;20028;-61
2020/12/02 12:39:24;;;;;;;47.75;26.02;;;;;;;;;;5084662;28;19940;-61
2020/12/02 12:41:51;;;;;;;50.63;26.23;;;;;;;;;;5085401;28;20086;-61
2020/12/02 12:44:43;;;;;;;47.45;24.40;;;;;;;;;;5074749;28;20028;-61
2020/12/02 12:47:21;;;;;;;47.78;25.17;;;;;;;;;;5071191;28;20038;-61
2020/12/02 12:49:47;;;;;;;55.78;25.95;;;;;;;;;;5070503;28;20021;-61
2020/12/02 12:52:15;;;;;;;51.63;25.88;;;;;;;;;;5064420;28;20045;-61
2020/12/02 12:54:42;;;;;;;46.50;24.23;;;;;;;;;;5062684;28;20118;-61
2020/12/02 12:57:12;;;;;;;43.83;23.55;;;;;;;;;;5072648;28;20471;-61
2020/12/02 12:59:38;;;;;;;46.10;24.35;;;;;;;;;;5068666;28;20064;-61
2020/12/02 13:02:05;;;;;;;47.03;24.15;;;;;;;;;;5072818;28;20119;-61
2020/12/02 13:04:31;;;;;;;47.45;24.08;;;;;;;;;;5075516;28;20108;-61
2020/12/02 13:07:07;;;;;;;46.97;23.45;;;;;;;;;;5077600;28;20016;-61
2020/12/02 13:09:39;;;;;;;41.97;22.98;;;;;;;;;;5086790;28;20115;-60
2020/12/02 13:12:19;;;;;;;51.05;25.48;;;;;;;;;;5089839;28;20519;-60
2020/12/02 13:14:45;;;;;;;45.70;23.42;;;;;;;;;;5088257;28;20020;-61
2020/12/02 13:17:14;;;;;;;41.72;22.70;;;;;;;;;;5083771;28;20028;-61
2020/12/02 13:19:53;;;;;;;43.17;21.60;;;;;;;;;;5083135;28;20062;-61
2020/12/02 13:22:34;;;;;;;43.63;22.55;;;;;;;;;;5069021;28;20040;-61
2020/12/02 13:25:03;;;;;;;47.08;24.63;;;;;;;;;;5079430;28;20028;-61
2020/12/02 13:27:35;;;;;;;43.83;22.02;;;;;;;;;;5070492;28;20385;-61
2020/12/02 13:30:04;;;;;;;45.47;21.42;;;;;;;;;;5090078;28;20035;-61
2020/12/02 13:32:32;;;;;;;41.25;22.45;;;;;;;;;;5074034;28;20047;-61
2020/12/02 13:34:58;;;;;;;41.95;23.02;;;;;;;;;;5069961;28;20024;-61
2020/12/02 13:37:24;;;;;;;40.30;22.48;;;;;;;;;;5080879;28;20348;-61
2020/12/02 13:39:50;;;;;;;44.63;21.70;;;;;;;;;;5087360;28;20031;-61
2020/12/02 13:42:16;;;;;;;43.05;23.38;;;;;;;;;;5069868;28;20653;-61
2020/12/02 13:44:50;;;;;;;40.13;21.98;;;;;;;;;;5064770;28;20029;-60
2020/12/02 13:47:16;;;;;;;44.42;23.75;;;;;;;;;;5065269;28;20033;-61
2020/12/02 13:49:43;;;;;;;43.95;22.52;;;;;;;;;;5066565;28;20037;-61
2020/12/02 13:52:20;;;;;;;44.58;23.42;;;;;;;;;;5062300;28;20028;-61
2020/12/02 13:54:56;;;;;;;43.38;22.30;;;;;;;;;;5083921;28;20066;-61
2020/12/02 13:57:41;;;;;;;45.70;23.35;;;;;;;;;;5067713;28;20029;-61
2020/12/02 14:00:07;;;;;;;43.20;22.75;;;;;;;;;;5068025;28;20689;-61
2020/12/02 14:02:42;;;;;;;46.00;24.02;;;;;;;;;;5084311;28;20024;-61
2020/12/02 14:05:14;;;;;;;45.47;23.05;;;;;;;;;;5071420;28;20051;-61
2020/12/02 14:07:42;;;;;;;43.65;21.70;;;;;;;;;;5073753;28;20519;-61
2020/12/02 14:10:10;;;;;;;45.80;23.67;;;;;;;;;;5072216;28;20039;-62
2020/12/02 14:12:37;;;;;;;41.50;21.52;;;;;;;;;;5080552;28;20030;-61
2020/12/02 14:15:04;;;;;;;43.63;23.70;;;;;;;;;;5070633;28;20048;-62
2020/12/02 14:17:30;;;;;;;44.47;23.17;;;;;;;;;;5066266;28;20024;-61
2020/12/02 14:20:08;;;;;;;45.85;24.50;;;;;;;;;;5090557;28;20042;-61
2020/12/02 14:22:39;;;;;;;43.20;23.13;;;;;;;;;;5062804;28;20021;-61
2020/12/02 14:25:08;;;;;;;50.38;25.00;;;;;;;;;;5075813;28;20032;-60
2020/12/02 14:27:35;;;;;;;44.67;25.08;;;;;;;;;;5086953;28;20082;-62
2020/12/02 14:30:04;;;;;;;43.25;22.95;;;;;;;;;;5064475;28;20074;-62
2020/12/02 14:32:30;;;;;;;49.72;23.25;;;;;;;;;;5055039;28;20043;-62